Time;durP1;ratioP1;P1;durP2;ratioP2;P2;SDS_P1;SDS_P2;PMS_P1;PMS_P2;Temp;Humidity;BMP_temperature;BMP_pressure;BME280_temperature;BME280_humidity;BME280_pressure;Samples;Min_cycle;Max_cycle;Signal;HPM_P1;HPM_P2
2021/06/08 00:02:21;;;;;;;20.65;12.52;;;14.10;99.90;;;;;;5063435;28;20556;-77
2021/06/08 00:04:46;;;;;;;21.15;11.88;;;14.10;99.90;;;;;;5064626;28;20192;-77
2021/06/08 00:07:12;;;;;;;17.02;10.73;;;14.10;99.90;;;;;;5060429;28;20212;-78
2021/06/08 00:09:38;;;;;;;20.60;12.50;;;14.10;99.90;;;;;;5066244;28;20283;-77
2021/06/08 00:12:04;;;;;;;17.60;11.68;;;14.10;99.90;;;;;;5060208;28;20673;-76
2021/06/08 00:14:30;;;;;;;19.30;12.07;;;14.10;99.90;;;;;;5064103;28;20244;-76
2021/06/08 00:16:55;;;;;;;21.83;13.20;;;14.10;99.90;;;;;;5058492;28;20254;-77
2021/06/08 00:19:21;;;;;;;25.15;12.60;;;14.00;99.90;;;;;;5065306;28;20558;-77
2021/06/08 00:21:47;;;;;;;26.42;13.80;;;14.10;99.90;;;;;;5064092;28;20226;-77
2021/06/08 00:24:15;;;;;;;21.63;13.32;;;14.00;99.90;;;;;;5064158;28;20202;-77
2021/06/08 00:26:41;;;;;;;22.02;13.43;;;14.00;99.90;;;;;;5079119;28;20197;-76
2021/06/08 00:29:07;;;;;;;23.95;14.23;;;14.00;99.90;;;;;;5062732;28;20266;-77
2021/06/08 00:31:32;;;;;;;25.02;14.25;;;13.90;99.90;;;;;;5062655;28;20639;-77
2021/06/08 00:33:58;;;;;;;23.65;13.48;;;13.90;99.90;;;;;;5059254;28;20206;-77
2021/06/08 00:36:24;;;;;;;19.75;13.05;;;13.90;99.90;;;;;;5062749;28;20200;-76
2021/06/08 00:38:49;;;;;;;21.95;13.52;;;13.90;99.90;;;;;;5062788;28;20193;-77
2021/06/08 00:41:15;;;;;;;23.27;13.75;;;13.80;99.90;;;;;;5062342;28;20204;-75
2021/06/08 00:43:41;;;;;;;23.15;13.18;;;13.80;99.90;;;;;;5062429;28;20193;-77
2021/06/08 00:46:07;;;;;;;17.77;12.40;;;13.80;99.90;;;;;;5058709;28;20293;-77
2021/06/08 00:48:32;;;;;;;22.50;12.45;;;13.80;99.90;;;;;;5061320;28;20205;-76
2021/06/08 00:50:58;;;;;;;21.38;12.60;;;13.90;99.90;;;;;;5077816;28;20205;-77
2021/06/08 00:53:24;;;;;;;28.13;12.95;;;13.90;99.90;;;;;;5062354;28;20558;-77
2021/06/08 00:55:51;;;;;;;19.08;12.05;;;14.00;99.90;;;;;;5064146;28;20245;-77
2021/06/08 00:58:17;;;;;;;22.95;14.20;;;14.00;99.90;;;;;;5076853;28;20193;-77
2021/06/08 01:00:43;;;;;;;27.67;13.77;;;13.90;99.90;;;;;;5062137;28;20212;-76
2021/06/08 01:03:09;;;;;;;19.02;11.88;;;13.90;99.90;;;;;;5071789;22;20228;-68
2021/06/08 01:05:34;;;;;;;23.80;13.73;;;13.90;99.90;;;;;;5080062;28;20272;-70
2021/06/08 01:08:00;;;;;;;15.93;11.77;;;13.90;99.90;;;;;;5074483;28;20200;-67
2021/06/08 01:10:26;;;;;;;18.20;12.45;;;13.80;99.90;;;;;;5076826;28;20188;-68
2021/06/08 01:12:51;;;;;;;18.25;12.02;;;13.80;99.90;;;;;;5081366;28;20204;-68
2021/06/08 01:15:17;;;;;;;19.15;12.48;;;13.90;99.90;;;;;;5079306;28;20196;-69
2021/06/08 01:17:43;;;;;;;20.40;12.43;;;13.90;99.90;;;;;;5083213;28;20205;-69
2021/06/08 01:20:10;;;;;;;19.45;12.40;;;13.90;99.90;;;;;;5084368;28;20200;-68
2021/06/08 01:22:36;;;;;;;18.10;12.00;;;13.90;99.90;;;;;;5081604;28;20372;-70
2021/06/08 01:25:05;;;;;;;19.48;12.57;;;13.80;99.90;;;;;;5082230;28;20861;-68
2021/06/08 01:27:31;;;;;;;20.25;12.55;;;13.90;99.90;;;;;;5099161;28;20196;-67
2021/06/08 01:29:59;;;;;;;22.40;13.10;;;13.90;99.90;;;;;;5080792;28;20359;-71
2021/06/08 01:32:27;;;;;;;22.27;13.50;;;13.90;99.90;;;;;;5081822;28;20344;-68
2021/06/08 01:34:55;;;;;;;23.63;14.15;;;13.90;99.90;;;;;;5083498;28;20219;-70
2021/06/08 01:37:22;;;;;;;24.20;13.30;;;14.00;99.90;;;;;;5081211;28;20550;-68
2021/06/08 01:39:48;;;;;;;19.40;12.82;;;14.00;99.90;;;;;;5084508;28;20396;-69
2021/06/08 01:42:15;;;;;;;20.23;13.38;;;14.00;99.90;;;;;;5083820;28;20312;-70
2021/06/08 01:44:45;;;;;;;21.50;13.05;;;14.00;99.90;;;;;;5083445;28;20226;-69
2021/06/08 01:47:12;;;;;;;22.48;12.95;;;14.00;99.90;;;;;;5083543;28;20746;-68
2021/06/08 01:49:38;;;;;;;22.27;13.63;;;14.00;99.90;;;;;;5081808;28;20230;-69
2021/06/08 01:52:14;;;;;;;19.33;13.50;;;14.00;99.90;;;;;;5082620;28;20200;-69
2021/06/08 01:55:07;;;;;;;20.80;12.90;;;14.00;99.90;;;;;;5082229;28;20204;-68
2021/06/08 01:57:43;;;;;;;17.30;11.57;;;14.00;99.90;;;;;;5082671;28;20228;-70
2021/06/08 02:00:20;;;;;;;19.80;13.13;;;14.00;99.90;;;;;;5075573;28;20195;-68
2021/06/08 02:03:08;;;;;;;17.67;11.95;;;14.00;99.90;;;;;;5077135;28;20227;-69
2021/06/08 02:06:12;;;;;;;18.83;12.82;;;13.90;99.90;;;;;;5082795;28;20239;-68
2021/06/08 02:08:50;;;;;;;21.60;13.35;;;13.90;99.90;;;;;;5080539;28;20192;-68
2021/06/08 02:11:22;;;;;;;23.77;13.55;;;13.90;99.90;;;;;;5079023;28;20260;-68
2021/06/08 02:14:03;;;;;;;20.55;12.35;;;13.90;99.90;;;;;;5080925;28;20209;-69
2021/06/08 02:16:57;;;;;;;18.33;11.80;;;13.80;99.90;;;;;;5079961;28;20193;-68
2021/06/08 02:19:24;;;;;;;19.23;11.55;;;13.80;99.90;;;;;;5080480;28;20210;-69
2021/06/08 02:21:59;;;;;;;19.70;12.88;;;13.70;99.90;;;;;;5078480;28;20192;-69
2021/06/08 02:24:27;;;;;;;19.58;12.05;;;13.80;99.90;;;;;;5081133;28;20207;-70
2021/06/08 02:26:59;;;;;;;22.20;12.57;;;13.80;99.90;;;;;;5076892;28;20599;-69
2021/06/08 02:29:26;;;;;;;18.80;12.63;;;13.80;99.90;;;;;;5079020;28;20197;-69
2021/06/08 02:31:54;;;;;;;21.25;13.45;;;13.80;99.90;;;;;;5075738;28;20197;-70
2021/06/08 02:34:20;;;;;;;22.85;13.57;;;13.80;99.90;;;;;;5075372;28;20204;-69
2021/06/08 02:36:46;;;;;;;19.80;12.32;;;13.80;99.90;;;;;;5079531;28;20214;-69
2021/06/08 02:39:14;;;;;;;22.13;12.57;;;13.80;99.90;;;;;;5076609;28;20207;-69
2021/06/08 02:41:41;;;;;;;23.98;14.18;;;13.90;99.90;;;;;;5093215;28;20216;-68
2021/06/08 02:44:09;;;;;;;18.50;12.95;;;13.90;99.90;;;;;;5078246;28;20383;-70
2021/06/08 02:46:36;;;;;;;23.15;13.45;;;13.90;99.90;;;;;;5080149;28;20223;-71
2021/06/08 02:49:02;;;;;;;19.80;12.95;;;14.00;99.90;;;;;;5074810;28;20245;-70
2021/06/08 02:51:29;;;;;;;24.13;14.80;;;14.00;99.90;;;;;;5080497;28;20211;-70
2021/06/08 02:53:56;;;;;;;21.75;14.02;;;14.00;99.90;;;;;;5081496;28;20231;-70
2021/06/08 02:56:22;;;;;;;24.13;14.70;;;14.00;99.90;;;;;;5081278;28;20193;-69
2021/06/08 02:58:49;;;;;;;26.25;13.85;;;14.10;99.90;;;;;;5080824;28;20207;-70
2021/06/08 03:01:18;;;;;;;20.50;13.38;;;14.10;99.90;;;;;;5081002;28;20199;-69
2021/06/08 03:03:51;;;;;;;19.85;12.85;;;14.10;99.90;;;;;;5099374;27;20307;-69
2021/06/08 03:06:21;;;;;;;20.33;13.07;;;14.10;99.90;;;;;;5081522;28;20274;-69
2021/06/08 03:09:15;;;;;;;24.73;14.43;;;14.20;99.90;;;;;;5082970;28;20973;-69
2021/06/08 03:11:49;;;;;;;22.42;15.13;;;14.30;99.90;;;;;;5080276;28;20218;-70
2021/06/08 03:14:16;;;;;;;20.48;13.45;;;14.30;99.90;;;;;;5076245;28;21666;-69
2021/06/08 03:16:57;;;;;;;26.77;14.65;;;14.30;99.90;;;;;;5084636;28;20220;-69
2021/06/08 03:19:28;;;;;;;21.55;13.15;;;14.30;99.90;;;;;;5079262;28;20196;-71
2021/06/08 03:21:59;;;;;;;22.92;14.40;;;14.20;99.90;;;;;;5079882;28;20212;-66
2021/06/08 03:24:30;;;;;;;24.85;14.63;;;14.20;99.90;;;;;;5081844;28;20234;-67
2021/06/08 03:26:58;;;;;;;22.38;13.32;;;14.20;99.90;;;;;;5083121;28;20246;-70
2021/06/08 03:29:25;;;;;;;22.38;13.98;;;14.30;99.90;;;;;;5083728;28;20188;-70
2021/06/08 03:31:51;;;;;;;23.48;14.43;;;14.30;99.90;;;;;;5083502;28;20207;-69
2021/06/08 03:34:19;;;;;;;22.70;13.68;;;14.30;99.90;;;;;;5079623;28;20783;-69
2021/06/08 03:36:53;;;;;;;19.38;13.02;;;14.30;99.90;;;;;;5083107;28;20215;-70
2021/06/08 03:39:20;;;;;;;28.85;14.85;;;14.40;99.90;;;;;;5082426;28;20207;-70
2021/06/08 03:41:47;;;;;;;21.38;13.63;;;14.40;99.90;;;;;;5084365;28;20251;-69
2021/06/08 03:44:14;;;;;;;22.45;15.23;;;14.50;99.90;;;;;;5079775;28;20223;-68
2021/06/08 03:46:41;;;;;;;20.95;13.55;;;14.50;99.90;;;;;;5083555;28;20249;-69
2021/06/08 03:49:07;;;;;;;21.88;13.77;;;14.60;99.90;;;;;;5077364;28;20188;-69
2021/06/08 03:51:33;;;;;;;24.60;15.32;;;14.70;99.90;;;;;;5083919;28;21013;-69
2021/06/08 03:53:59;;;;;;;21.83;13.88;;;14.70;99.90;;;;;;5097105;27;20192;-68
2021/06/08 03:56:26;;;;;;;22.25;14.98;;;14.80;99.90;;;;;;5081368;28;20204;-68
2021/06/08 03:58:55;;;;;;;26.40;15.30;;;14.80;99.90;;;;;;5082210;28;20945;-68
2021/06/08 04:01:22;;;;;;;21.95;15.05;;;14.80;99.90;;;;;;5081802;28;20196;-67
2021/06/08 04:03:49;;;;;;;21.73;14.93;;;14.90;99.90;;;;;;5083320;28;20215;-69
2021/06/08 04:06:17;;;;;;;23.20;14.45;;;14.80;99.90;;;;;;5081120;28;20223;-67
2021/06/08 04:08:43;;;;;;;20.33;13.70;;;14.80;99.90;;;;;;5078969;28;20287;-67
2021/06/08 04:11:13;;;;;;;25.98;13.32;;;15.00;99.90;;;;;;5081717;28;20496;-67
2021/06/08 04:13:42;;;;;;;24.88;14.90;;;15.00;99.90;;;;;;5080314;28;20253;-67
2021/06/08 04:16:08;;;;;;;25.85;13.65;;;15.10;99.90;;;;;;5078528;28;20605;-69
2021/06/08 04:18:36;;;;;;;22.52;14.32;;;15.20;99.90;;;;;;5086008;28;20192;-67
2021/06/08 04:21:02;;;;;;;23.00;15.60;;;15.30;99.90;;;;;;5075601;28;20528;-69
2021/06/08 04:23:28;;;;;;;22.65;14.35;;;15.40;99.90;;;;;;5072564;28;20214;-67
2021/06/08 04:25:55;;;;;;;20.08;13.70;;;15.40;99.90;;;;;;5078620;28;20204;-68
2021/06/08 04:28:22;;;;;;;23.83;14.70;;;15.50;99.90;;;;;;5090718;28;20275;-67
2021/06/08 04:30:49;;;;;;;21.88;14.43;;;15.50;99.90;;;;;;5084394;28;20200;-68
2021/06/08 04:33:23;;;;;;;22.23;14.95;;;15.50;99.90;;;;;;5080402;28;20192;-67
2021/06/08 04:35:50;;;;;;;23.63;15.18;;;15.50;99.90;;;;;;5081986;28;20672;-68
2021/06/08 04:38:16;;;;;;;21.55;14.93;;;15.60;99.90;;;;;;5084972;28;20204;-67
2021/06/08 04:40:48;;;;;;;22.80;14.57;;;15.70;99.90;;;;;;5083751;28;20257;-67
2021/06/08 04:43:14;;;;;;;24.08;14.27;;;15.80;99.90;;;;;;5082775;28;20684;-67
2021/06/08 04:45:40;;;;;;;25.70;14.57;;;15.90;99.90;;;;;;5083143;28;20199;-67
2021/06/08 04:48:07;;;;;;;26.10;14.15;;;15.90;99.90;;;;;;5067247;28;20659;-69
2021/06/08 04:50:33;;;;;;;21.88;13.98;;;16.00;99.90;;;;;;5077989;28;20275;-69
2021/06/08 04:53:04;;;;;;;25.10;14.35;;;16.10;99.90;;;;;;5080643;28;20192;-67
2021/06/08 04:55:30;;;;;;;21.48;14.30;;;16.20;99.90;;;;;;5080141;28;20231;-68
2021/06/08 04:57:56;;;;;;;25.08;15.55;;;16.20;99.90;;;;;;5082465;28;20196;-67
2021/06/08 05:00:44;;;;;;;23.90;15.15;;;16.30;99.90;;;;;;5081898;28;20279;-68
2021/06/08 05:03:22;;;;;;;19.35;14.15;;;16.30;99.90;;;;;;5083526;28;20281;-68
2021/06/08 05:05:52;;;;;;;24.98;13.93;;;16.50;99.90;;;;;;5080039;28;20195;-69
2021/06/08 05:08:26;;;;;;;22.85;14.75;;;16.50;99.90;;;;;;5077698;28;20247;-69
2021/06/08 05:11:24;;;;;;;19.95;13.98;;;16.60;99.90;;;;;;5078927;28;20567;-68
2021/06/08 05:13:51;;;;;;;22.70;14.07;;;16.70;99.90;;;;;;5013780;28;20200;-68
2021/06/08 05:16:17;;;;;;;21.75;14.00;;;16.70;99.90;;;;;;5072069;28;20675;-67
2021/06/08 05:18:46;;;;;;;19.20;13.48;;;16.80;99.90;;;;;;5082415;28;20588;-69
2021/06/08 05:21:14;;;;;;;21.30;14.05;;;16.80;99.90;;;;;;5084148;28;20649;-67
2021/06/08 05:23:41;;;;;;;22.88;14.20;;;16.80;99.90;;;;;;5075785;28;20600;-68
2021/06/08 05:26:06;;;;;;;20.83;14.38;;;16.80;99.90;;;;;;5080594;28;20942;-69
2021/06/08 05:28:38;;;;;;;20.50;13.35;;;16.80;99.90;;;;;;5079676;28;20301;-68
2021/06/08 05:31:04;;;;;;;23.38;14.95;;;16.90;99.90;;;;;;5074796;28;20460;-67
2021/06/08 05:33:30;;;;;;;22.75;14.15;;;17.10;99.90;;;;;;5077965;28;21051;-69
2021/06/08 05:35:57;;;;;;;20.55;14.43;;;17.20;99.90;;;;;;5075553;28;21228;-69
2021/06/08 05:38:36;;;;;;;20.85;13.93;;;17.40;99.90;;;;;;5073704;28;20543;-67
2021/06/08 05:41:11;;;;;;;17.35;13.20;;;17.60;99.90;;;;;;5077265;28;20219;-68
2021/06/08 05:43:39;;;;;;;20.52;13.48;;;17.60;99.90;;;;;;5074550;28;20207;-69
2021/06/08 05:46:06;;;;;;;21.48;13.60;;;17.70;99.90;;;;;;5075381;28;20196;-67
2021/06/08 05:48:34;;;;;;;19.88;14.25;;;17.60;99.90;;;;;;5076713;28;20235;-67
2021/06/08 05:51:03;;;;;;;20.20;13.38;;;17.70;99.90;;;;;;5077969;28;20287;-68
2021/06/08 05:53:29;;;;;;;20.77;14.30;;;17.80;99.90;;;;;;5078740;28;20196;-68
2021/06/08 05:55:57;;;;;;;21.00;13.45;;;17.80;99.90;;;;;;5079841;28;20208;-68
2021/06/08 05:58:27;;;;;;;21.33;14.30;;;17.80;99.90;;;;;;5079987;28;20608;-67
2021/06/08 06:00:54;;;;;;;20.38;14.50;;;17.70;99.90;;;;;;5080540;28;20659;-68
2021/06/08 06:03:22;;;;;;;23.95;15.13;;;17.60;99.90;;;;;;5079614;28;20226;-67
2021/06/08 06:05:48;;;;;;;23.85;14.95;;;17.50;99.90;;;;;;5092868;28;20195;-68
2021/06/08 06:08:15;;;;;;;21.30;14.27;;;17.40;99.90;;;;;;5075701;28;20815;-67
2021/06/08 06:10:42;;;;;;;24.67;15.20;;;17.30;99.90;;;;;;5077555;28;20188;-68
2021/06/08 06:13:16;;;;;;;21.70;14.23;;;17.30;99.90;;;;;;5080076;28;20204;-68
2021/06/08 06:15:45;;;;;;;22.73;15.05;;;17.30;99.90;;;;;;5079911;28;20215;-68
2021/06/08 06:18:13;;;;;;;24.70;15.35;;;17.30;99.90;;;;;;5076699;28;20204;-68
2021/06/08 06:20:39;;;;;;;20.42;14.65;;;17.20;99.90;;;;;;5078456;28;20234;-67
2021/06/08 06:23:05;;;;;;;21.52;14.57;;;17.20;99.90;;;;;;5076451;28;20706;-68
2021/06/08 06:25:31;;;;;;;21.65;14.93;;;17.20;99.90;;;;;;5075481;28;20196;-69
2021/06/08 06:27:57;;;;;;;23.70;15.30;;;17.30;99.90;;;;;;5075686;28;20189;-67
2021/06/08 06:30:24;;;;;;;20.80;14.63;;;17.30;99.90;;;;;;5078291;28;20214;-68
2021/06/08 06:32:50;;;;;;;23.38;16.40;;;17.20;99.90;;;;;;5075602;28;20196;-68
2021/06/08 06:35:16;;;;;;;29.55;16.05;;;17.10;99.90;;;;;;5075745;28;20682;-68
2021/06/08 06:37:45;;;;;;;25.33;16.02;;;17.10;99.90;;;;;;5073860;28;20205;-68
2021/06/08 06:40:17;;;;;;;23.08;14.95;;;17.10;99.90;;;;;;5074161;28;20262;-67
2021/06/08 06:42:45;;;;;;;24.38;14.93;;;17.10;99.90;;;;;;5077696;28;20297;-68
2021/06/08 06:45:17;;;;;;;24.23;16.20;;;17.20;99.90;;;;;;5080349;28;21279;-67
2021/06/08 06:47:43;;;;;;;23.48;15.45;;;17.30;99.90;;;;;;5070278;28;20241;-67
2021/06/08 06:50:10;;;;;;;21.92;15.15;;;17.40;99.90;;;;;;5078365;28;20201;-68
2021/06/08 06:52:40;;;;;;;22.35;14.45;;;17.70;99.90;;;;;;5075514;28;20200;-69
2021/06/08 06:55:09;;;;;;;24.80;13.73;;;18.40;99.90;;;;;;5075079;28;20252;-70
2021/06/08 06:57:36;;;;;;;22.23;14.07;;;19.00;99.90;;;;;;5075001;28;20279;-70
2021/06/08 07:00:04;;;;;;;22.35;12.98;;;19.10;99.90;;;;;;5076847;28;20219;-70
2021/06/08 07:02:31;;;;;;;20.33;13.10;;;19.10;99.90;;;;;;5079542;28;20228;-69
2021/06/08 07:04:57;;;;;;;20.27;13.38;;;19.50;99.90;;;;;;5069246;28;20261;-68
2021/06/08 07:07:24;;;;;;;22.30;14.25;;;19.60;99.90;;;;;;5077426;28;20242;-68
2021/06/08 07:09:50;;;;;;;19.17;13.43;;;19.40;99.90;;;;;;5075778;28;20200;-69
2021/06/08 07:12:23;;;;;;;19.02;13.20;;;19.40;99.90;;;;;;5077188;28;20575;-69
2021/06/08 07:14:49;;;;;;;23.33;12.95;;;19.50;99.90;;;;;;5073427;28;20215;-70
2021/06/08 07:17:17;;;;;;;17.20;12.32;;;19.60;99.90;;;;;;5078384;28;20198;-69
2021/06/08 07:19:44;;;;;;;18.00;12.63;;;19.40;99.90;;;;;;5067302;28;20192;-68
2021/06/08 07:22:10;;;;;;;23.90;13.27;;;19.40;99.90;;;;;;5077268;28;20211;-67
2021/06/08 07:24:40;;;;;;;20.98;13.68;;;19.30;99.90;;;;;;5074351;28;20353;-69
2021/06/08 07:27:06;;;;;;;19.40;12.43;;;19.50;99.90;;;;;;5068598;28;20302;-67
2021/06/08 07:29:33;;;;;;;17.02;12.52;;;19.90;99.90;;;;;;5074513;28;20287;-68
2021/06/08 07:32:05;;;;;;;20.80;12.57;;;19.80;99.90;;;;;;5074017;28;20244;-68
2021/06/08 07:35:01;;;;;;;18.20;11.98;;;19.50;99.90;;;;;;5076406;28;20555;-68
2021/06/08 07:37:29;;;;;;;19.45;12.77;;;19.30;99.90;;;;;;5084826;28;20286;-68
2021/06/08 07:40:02;;;;;;;19.67;12.10;;;19.00;99.90;;;;;;5070397;28;21041;-68
2021/06/08 07:42:51;;;;;;;15.57;11.77;;;18.90;99.90;;;;;;5078467;28;20239;-68
2021/06/08 07:45:24;;;;;;;16.67;11.90;;;19.00;99.90;;;;;;5093354;28;20655;-69
2021/06/08 07:47:53;;;;;;;17.08;11.40;;;19.20;99.90;;;;;;5079439;28;20196;-69
2021/06/08 07:50:20;;;;;;;16.05;10.77;;;19.20;99.90;;;;;;5081093;28;20188;-69
2021/06/08 07:52:50;;;;;;;15.57;11.10;;;19.30;99.90;;;;;;5080490;28;20273;-68
2021/06/08 07:55:16;;;;;;;15.60;11.13;;;19.80;99.90;;;;;;5081107;28;20199;-67
2021/06/08 07:57:45;;;;;;;16.50;10.77;;;20.40;99.90;;;;;;5081576;28;20200;-67
2021/06/08 08:00:12;;;;;;;13.82;9.93;;;20.70;99.90;;;;;;5079923;28;20206;-67
2021/06/08 08:02:38;;;;;;;14.20;9.98;;;20.50;99.90;;;;;;5082774;28;20228;-67
2021/06/08 08:05:09;;;;;;;16.63;10.32;;;20.60;99.90;;;;;;5081337;28;20299;-68
2021/06/08 08:07:35;;;;;;;15.23;10.13;;;20.60;99.90;;;;;;5078440;28;20249;-67
2021/06/08 08:10:02;;;;;;;13.48;9.35;;;20.80;99.90;;;;;;5081093;28;20204;-68
2021/06/08 08:12:33;;;;;;;13.77;9.52;;;21.00;99.90;;;;;;5079349;28;21130;-69
2021/06/08 08:15:00;;;;;;;13.73;9.32;;;21.30;99.90;;;;;;5080164;28;20196;-67
2021/06/08 08:17:27;;;;;;;14.52;9.75;;;21.30;99.90;;;;;;5078339;28;20196;-66
2021/06/08 08:19:52;;;;;;;13.30;8.98;;;21.10;99.90;;;;;;5081616;28;20261;-67
2021/06/08 08:22:18;;;;;;;13.00;8.93;;;20.70;99.90;;;;;;5082676;28;20212;-67
2021/06/08 08:24:44;;;;;;;14.32;9.27;;;20.40;99.90;;;;;;5079292;28;20194;-68
2021/06/08 08:27:13;;;;;;;10.40;7.93;;;20.80;99.90;;;;;;5076433;28;20218;-67
2021/06/08 08:29:39;;;;;;;11.02;8.30;;;21.70;99.90;;;;;;5079622;28;20364;-71
2021/06/08 08:32:06;;;;;;;13.55;8.48;;;22.70;99.90;;;;;;5079761;28;20218;-68
2021/06/08 08:34:32;;;;;;;22.25;7.80;;;23.40;99.90;;;;;;5080468;28;20260;-69
2021/06/08 08:36:57;;;;;;;10.30;7.47;;;23.60;99.90;;;;;;5076743;28;20234;-69
2021/06/08 08:39:23;;;;;;;10.02;7.53;;;23.10;99.90;;;;;;5078796;28;20203;-70
2021/06/08 08:41:53;;;;;;;12.73;7.97;;;22.60;99.90;;;;;;5075019;28;20247;-68
2021/06/08 08:44:19;;;;;;;11.85;7.80;;;22.20;99.90;;;;;;5078336;28;20245;-68
2021/06/08 08:46:45;;;;;;;9.55;6.90;;;21.90;99.90;;;;;;5079924;28;20188;-69
2021/06/08 08:49:11;;;;;;;11.25;7.38;;;22.00;99.90;;;;;;5079080;28;21049;-68
2021/06/08 08:51:38;;;;;;;12.57;8.07;;;22.40;99.90;;;;;;5078126;28;20199;-70
2021/06/08 08:54:04;;;;;;;10.10;7.28;;;23.20;99.90;;;;;;5077783;28;20725;-70
2021/06/08 08:56:34;;;;;;;12.55;7.47;;;23.40;99.90;;;;;;5079614;28;20200;-68
2021/06/08 08:59:05;;;;;;;9.63;7.35;;;22.50;99.90;;;;;;5075094;28;20219;-69
2021/06/08 09:01:32;;;;;;;9.48;6.90;;;22.10;99.90;;;;;;5076555;28;20199;-67
2021/06/08 09:04:00;;;;;;;8.60;6.97;;;21.70;99.90;;;;;;5072862;28;20225;-68
2021/06/08 09:06:25;;;;;;;12.00;7.07;;;21.80;99.90;;;;;;5075885;28;20254;-69
2021/06/08 09:08:52;;;;;;;11.73;6.95;;;22.60;99.90;;;;;;5075595;28;20593;-69
2021/06/08 09:11:19;;;;;;;12.70;7.78;;;23.60;99.90;;;;;;5075917;28;20537;-68
2021/06/08 09:13:45;;;;;;;9.23;7.30;;;24.20;99.90;;;;;;5076264;28;20200;-69
2021/06/08 09:16:14;;;;;;;12.65;7.68;;;24.10;99.90;;;;;;5076898;28;20200;-73
2021/06/08 09:18:41;;;;;;;10.38;7.53;;;24.00;99.90;;;;;;5077013;28;20291;-72
2021/06/08 09:21:23;;;;;;;12.88;7.60;;;24.20;99.90;;;;;;5079457;28;20242;-69
2021/06/08 09:23:49;;;;;;;9.57;6.93;;;24.60;99.90;;;;;;5077514;28;20298;-71
2021/06/08 09:26:15;;;;;;;11.13;7.05;;;25.50;99.90;;;;;;5079949;28;20295;-67
2021/06/08 09:28:43;;;;;;;12.40;7.30;;;25.30;99.90;;;;;;5078791;28;20780;-69
2021/06/08 09:31:21;;;;;;;10.88;7.80;;;24.90;99.90;;;;;;5078636;28;20196;-71
2021/06/08 09:33:50;;;;;;;13.07;7.63;;;24.10;99.90;;;;;;5078350;28;20498;-70
2021/06/08 09:36:27;;;;;;;9.63;7.22;;;23.50;99.90;;;;;;5076394;28;20392;-71
2021/06/08 09:39:02;;;;;;;10.38;7.72;;;23.30;99.90;;;;;;5078094;28;20301;-71
2021/06/08 09:41:43;;;;;;;9.63;7.57;;;23.40;99.90;;;;;;5076105;28;20787;-72
2021/06/08 09:44:19;;;;;;;9.65;7.35;;;23.10;99.90;;;;;;5078915;28;20192;-71
2021/06/08 09:46:49;;;;;;;8.55;6.82;;;23.10;99.90;;;;;;5076396;28;20223;-70
2021/06/08 09:49:17;;;;;;;11.38;8.02;;;22.80;99.90;;;;;;5077303;28;20917;-70
2021/06/08 09:52:04;;;;;;;12.10;7.30;;;23.30;99.90;;;;;;5075259;28;20726;-73
2021/06/08 09:54:51;;;;;;;12.57;7.65;;;23.70;99.90;;;;;;5074459;28;20197;-70
2021/06/08 09:57:25;;;;;;;8.98;7.25;;;23.60;99.90;;;;;;5079729;28;20200;-74
2021/06/08 09:59:56;;;;;;;11.82;7.25;;;24.00;99.90;;;;;;5074113;28;20234;-73
2021/06/08 10:02:38;;;;;;;9.23;6.63;;;24.30;99.90;;;;;;5075847;28;20293;-72
2021/06/08 10:05:29;;;;;;;12.07;8.38;;;23.80;99.90;;;;;;5079065;28;20283;-71
2021/06/08 10:07:57;;;;;;;10.10;7.80;;;23.40;99.90;;;;;;5076551;28;20211;-70
2021/06/08 10:10:25;;;;;;;9.98;7.40;;;22.70;99.90;;;;;;5078984;28;20189;-70
2021/06/08 10:13:05;;;;;;;9.68;7.00;;;22.50;99.90;;;;;;5079618;28;20309;-70
2021/06/08 10:15:33;;;;;;;10.90;7.13;;;22.60;99.90;;;;;;5074641;28;20204;-71
2021/06/08 10:18:00;;;;;;;10.18;7.20;;;22.30;99.90;;;;;;5079448;28;20206;-71
2021/06/08 10:20:29;;;;;;;9.48;7.32;;;22.10;99.90;;;;;;5076444;28;20291;-71
2021/06/08 10:22:56;;;;;;;10.27;7.93;;;21.90;99.90;;;;;;5075559;28;20250;-72
2021/06/08 10:25:22;;;;;;;10.57;7.90;;;21.80;99.90;;;;;;5078758;28;20190;-71
2021/06/08 10:27:48;;;;;;;11.23;7.63;;;22.10;99.90;;;;;;5077673;28;20219;-71
2021/06/08 10:30:16;;;;;;;18.45;7.70;;;22.20;99.90;;;;;;5078912;28;20230;-72
2021/06/08 10:32:42;;;;;;;19.40;7.90;;;22.50;99.90;;;;;;5078780;28;20207;-72
2021/06/08 10:35:09;;;;;;;11.05;7.40;;;22.80;99.90;;;;;;5073938;28;20204;-71
2021/06/08 10:37:38;;;;;;;10.68;7.45;;;22.90;99.90;;;;;;5077397;28;20192;-73
2021/06/08 10:40:06;;;;;;;10.20;7.47;;;22.90;99.90;;;;;;5075866;28;20283;-71
2021/06/08 10:42:32;;;;;;;11.55;7.30;;;22.70;99.90;;;;;;5077918;28;20223;-72
2021/06/08 10:45:09;;;;;;;16.88;7.13;;;22.60;99.90;;;;;;5074306;28;20198;-72
2021/06/08 10:48:04;;;;;;;10.60;7.05;;;22.80;99.90;;;;;;5070284;28;20240;-72
2021/06/08 10:50:30;;;;;;;11.57;7.47;;;23.50;99.90;;;;;;5074470;28;20212;-72
2021/06/08 10:52:58;;;;;;;9.57;7.70;;;23.70;99.90;;;;;;5076493;28;20253;-70
2021/06/08 10:55:32;;;;;;;13.10;7.88;;;23.20;99.90;;;;;;5074894;28;20289;-69
2021/06/08 10:57:58;;;;;;;13.63;7.35;;;22.90;99.90;;;;;;5081081;28;20199;-68
2021/06/08 11:00:23;;;;;;;11.48;7.13;;;22.80;99.90;;;;;;5073996;28;20792;-70
2021/06/08 11:02:51;;;;;;;11.27;7.25;;;23.00;99.90;;;;;;5080221;28;20219;-70
2021/06/08 11:05:19;;;;;;;12.57;6.68;;;22.90;99.90;;;;;;5076399;28;20192;-71
2021/06/08 11:07:49;;;;;;;9.80;7.30;;;23.10;99.90;;;;;;5077050;28;20301;-70
2021/06/08 11:10:27;;;;;;;11.50;6.50;;;22.80;99.90;;;;;;5077594;28;20818;-71
2021/06/08 11:13:08;;;;;;;9.10;6.85;;;23.10;99.90;;;;;;5075879;28;20629;-71
2021/06/08 11:15:45;;;;;;;9.10;7.40;;;23.00;99.90;;;;;;5080014;28;20208;-71
2021/06/08 11:18:22;;;;;;;10.35;7.35;;;22.60;99.90;;;;;;5082415;28;20309;-67
2021/06/08 11:20:57;;;;;;;12.25;7.25;;;22.70;99.90;;;;;;5074110;28;20281;-68
2021/06/08 11:23:43;;;;;;;8.27;6.35;;;22.90;99.90;;;;;;5073948;28;20287;-72
2021/06/08 11:26:14;;;;;;;8.95;6.93;;;22.90;99.90;;;;;;5074704;28;20811;-70
2021/06/08 11:28:41;;;;;;;10.32;7.25;;;23.40;99.90;;;;;;5077802;28;20193;-68
2021/06/08 11:31:07;;;;;;;11.02;7.00;;;23.60;99.90;;;;;;5081351;28;20195;-71
2021/06/08 11:33:36;;;;;;;10.23;7.40;;;23.50;99.90;;;;;;5081591;28;20199;-72
2021/06/08 11:36:26;;;;;;;8.93;7.13;;;23.70;99.90;;;;;;5082071;28;20195;-69
2021/06/08 11:38:57;;;;;;;9.55;6.70;;;23.70;99.90;;;;;;5084012;28;20211;-71
2021/06/08 11:41:24;;;;;;;10.43;6.53;;;24.20;99.90;;;;;;5078276;28;20195;-70
2021/06/08 11:44:01;;;;;;;9.80;6.43;;;24.40;99.90;;;;;;5075505;28;20200;-70
2021/06/08 11:46:32;;;;;;;8.30;6.82;;;24.30;99.90;;;;;;5075124;28;20203;-70
2021/06/08 11:49:08;;;;;;;8.15;6.60;;;25.10;99.90;;;;;;5076142;28;20200;-72
2021/06/08 11:51:39;;;;;;;15.05;6.40;;;25.30;99.90;;;;;;5079608;28;20597;-71
2021/06/08 11:54:16;;;;;;;9.50;6.72;;;25.00;99.90;;;;;;5077663;28;20311;-74
2021/06/08 11:56:55;;;;;;;8.65;6.38;;;24.70;99.90;;;;;;5075441;28;20188;-72
2021/06/08 11:59:27;;;;;;;9.88;6.88;;;24.00;99.90;;;;;;5080036;28;20192;-72
2021/06/08 12:02:18;;;;;;;7.43;6.00;;;24.20;99.90;;;;;;5081944;28;20230;-70
2021/06/08 12:05:09;;;;;;;8.43;6.70;;;25.10;99.90;;;;;;5073835;28;20248;-71
2021/06/08 12:07:43;;;;;;;10.32;5.82;;;25.80;99.90;;;;;;5080642;28;20193;-70
2021/06/08 12:10:10;;;;;;;10.80;6.85;;;25.60;99.90;;;;;;5075537;28;20196;-70
2021/06/08 12:12:49;;;;;;;7.88;5.80;;;26.00;99.90;;;;;;5080866;28;20192;-71
2021/06/08 12:15:30;;;;;;;9.05;6.40;;;26.80;99.90;;;;;;5071025;28;20193;-69
2021/06/08 12:18:20;;;;;;;8.88;6.50;;;27.50;99.90;;;;;;5078968;28;20212;-71
2021/06/08 12:20:47;;;;;;;10.35;6.40;;;27.70;99.90;;;;;;5077317;28;20191;-71
2021/06/08 12:23:28;;;;;;;10.27;6.40;;;27.50;99.90;;;;;;5075843;28;20303;-72
2021/06/08 12:26:06;;;;;;;6.70;5.90;;;27.80;99.90;;;;;;5076715;28;20196;-71
2021/06/08 12:28:31;;;;;;;9.32;5.85;;;27.90;99.20;;;;;;5080556;28;20438;-72
2021/06/08 12:31:10;;;;;;;7.93;6.22;;;27.80;99.40;;;;;;5077448;28;20307;-69
2021/06/08 12:33:36;;;;;;;6.55;5.65;;;28.50;97.50;;;;;;5079456;28;20203;-73
2021/06/08 12:36:06;;;;;;;7.25;6.07;;;28.50;97.50;;;;;;5073361;28;20275;-72
2021/06/08 12:38:32;;;;;;;6.22;5.55;;;28.30;95.60;;;;;;5075803;28;20200;-71
2021/06/08 12:41:00;;;;;;;7.75;6.30;;;27.70;96.20;;;;;;5074859;28;20222;-69
2021/06/08 12:43:26;;;;;;;9.73;5.78;;;27.40;96.90;;;;;;5080431;28;20199;-71
2021/06/08 12:45:57;;;;;;;6.38;5.07;;;27.40;97.40;;;;;;5081668;28;20755;-69
2021/06/08 12:48:23;;;;;;;6.43;5.60;;;27.80;96.20;;;;;;5076386;28;20286;-73